sensor_id;sensor_type;location;lat;lon;timestamp;pressure;altitude;pressure_sealevel;temperature;humidity
56600;BME280;51832;48.152;11.530;2023-04-30T00:02:13;95640.16;;;15.63;65.37
56600;BME280;51832;48.152;11.530;2023-04-30T00:07:13;95628.31;;;15.71;64.66
56600;BME280;51832;48.152;11.530;2023-04-30T00:12:13;95633.44;;;15.55;64.90
56600;BME280;51832;48.152;11.530;2023-04-30T00:17:14;95642.22;;;15.39;66.13
56600;BME280;51832;48.152;11.530;2023-04-30T00:22:15;95640.91;;;14.98;67.63
56600;BME280;51832;48.152;11.530;2023-04-30T00:27:15;95642.84;;;14.86;67.96
56600;BME280;51832;48.152;11.530;2023-04-30T00:32:16;95659.69;;;15.35;66.62
56600;BME280;51832;48.152;11.530;2023-04-30T00:37:16;95665.97;;;15.29;66.24
56600;BME280;51832;48.152;11.530;2023-04-30T00:42:16;95660.69;;;15.29;66.13
56600;BME280;51832;48.152;11.530;2023-04-30T00:47:17;95653.47;;;15.08;67.50
56600;BME280;51832;48.152;11.530;2023-04-30T00:52:17;95660.53;;;15.19;66.09
56600;BME280;51832;48.152;11.530;2023-04-30T00:57:19;95656.09;;;15.46;65.67
56600;BME280;51832;48.152;11.530;2023-04-30T01:02:19;95659.19;;;15.38;66.35
56600;BME280;51832;48.152;11.530;2023-04-30T01:07:20;95670.88;;;15.81;64.38
56600;BME280;51832;48.152;11.530;2023-04-30T01:12:36;95678.09;;;15.63;65.14
56600;BME280;51832;48.152;11.530;2023-04-30T01:17:50;95681.13;;;15.34;65.26
56600;BME280;51832;48.152;11.530;2023-04-30T01:28:21;95680.88;;;15.35;65.58
56600;BME280;51832;48.152;11.530;2023-04-30T01:33:23;95679.91;;;15.58;63.77
56600;BME280;51832;48.152;11.530;2023-04-30T01:48:54;95683.34;;;15.20;66.11
56600;BME280;51832;48.152;11.530;2023-04-30T01:54:05;95679.66;;;15.04;66.35
56600;BME280;51832;48.152;11.530;2023-04-30T01:59:08;95679.53;;;15.33;65.31
56600;BME280;51832;48.152;11.530;2023-04-30T02:04:09;95679.72;;;14.87;66.65
56600;BME280;51832;48.152;11.530;2023-04-30T02:09:09;95675.47;;;14.24;69.54
56600;BME280;51832;48.152;11.530;2023-04-30T02:14:10;95684.19;;;14.53;68.69
56600;BME280;51832;48.152;11.530;2023-04-30T02:19:10;95683.81;;;14.45;68.72
56600;BME280;51832;48.152;11.530;2023-04-30T02:24:11;95687.56;;;14.66;67.98
56600;BME280;51832;48.152;11.530;2023-04-30T02:29:11;95685.75;;;14.38;69.39
56600;BME280;51832;48.152;11.530;2023-04-30T02:34:12;95688.16;;;14.22;69.43
56600;BME280;51832;48.152;11.530;2023-04-30T02:39:12;95688.06;;;14.46;69.12
56600;BME280;51832;48.152;11.530;2023-04-30T02:44:13;95701.06;;;14.36;69.17
56600;BME280;51832;48.152;11.530;2023-04-30T02:49:13;95700.28;;;14.35;69.95
56600;BME280;51832;48.152;11.530;2023-04-30T02:54:13;95703.88;;;14.57;67.81
56600;BME280;51832;48.152;11.530;2023-04-30T02:59:14;95707.91;;;14.32;69.23
56600;BME280;51832;48.152;11.530;2023-04-30T03:04:14;95705.63;;;13.67;71.66
56600;BME280;51832;48.152;11.530;2023-04-30T03:09:15;95697.56;;;13.73;71.62
56600;BME280;51832;48.152;11.530;2023-04-30T03:14:15;95693.94;;;13.91;71.38
56600;BME280;51832;48.152;11.530;2023-04-30T03:19:16;95687.59;;;13.64;71.82
56600;BME280;51832;48.152;11.530;2023-04-30T03:24:17;95695.56;;;13.40;72.60
56600;BME280;51832;48.152;11.530;2023-04-30T03:29:18;95686.06;;;13.79;71.18
56600;BME280;51832;48.152;11.530;2023-04-30T03:34:18;95683.88;;;13.76;71.53
56600;BME280;51832;48.152;11.530;2023-04-30T03:39:19;95679.59;;;13.47;72.08
56600;BME280;51832;48.152;11.530;2023-04-30T03:44:19;95685.91;;;13.86;70.26
56600;BME280;51832;48.152;11.530;2023-04-30T03:49:20;95675.06;;;13.59;72.15
56600;BME280;51832;48.152;11.530;2023-04-30T03:54:20;95664.53;;;13.47;71.60
56600;BME280;51832;48.152;11.530;2023-04-30T03:59:20;95667.31;;;13.29;72.83
56600;BME280;51832;48.152;11.530;2023-04-30T04:04:21;95664.78;;;13.46;72.00
56600;BME280;51832;48.152;11.530;2023-04-30T04:09:22;95664.38;;;13.66;70.38
56600;BME280;51832;48.152;11.530;2023-04-30T04:14:22;95675.91;;;13.88;69.95
56600;BME280;51832;48.152;11.530;2023-04-30T04:19:23;95675.94;;;14.21;68.37
56600;BME280;51832;48.152;11.530;2023-04-30T04:24:24;95687.28;;;13.88;69.06
56600;BME280;51832;48.152;11.530;2023-04-30T04:29:24;95692.69;;;14.10;68.52
56600;BME280;51832;48.152;11.530;2023-04-30T04:34:25;95701.66;;;13.93;69.10
56600;BME280;51832;48.152;11.530;2023-04-30T04:39:26;95706.97;;;13.81;69.50
56600;BME280;51832;48.152;11.530;2023-04-30T04:44:26;95702.97;;;14.23;67.69
56600;BME280;51832;48.152;11.530;2023-04-30T04:49:26;95708.63;;;14.27;67.74
56600;BME280;51832;48.152;11.530;2023-04-30T04:54:27;95706.97;;;13.81;69.37
56600;BME280;51832;48.152;11.530;2023-04-30T04:59:28;95708.25;;;13.78;69.96
56600;BME280;51832;48.152;11.530;2023-04-30T05:04:30;95709.47;;;13.87;68.49
56600;BME280;51832;48.152;11.530;2023-04-30T05:09:30;95708.50;;;13.77;68.92
56600;BME280;51832;48.152;11.530;2023-04-30T05:14:30;95711.75;;;13.56;69.92
56600;BME280;51832;48.152;11.530;2023-04-30T05:19:31;95723.31;;;13.78;69.23
56600;BME280;51832;48.152;11.530;2023-04-30T05:24:32;95728.69;;;14.11;68.10
56600;BME280;51832;48.152;11.530;2023-04-30T05:29:33;95724.88;;;13.91;68.04
56600;BME280;51832;48.152;11.530;2023-04-30T05:34:33;95726.28;;;14.10;66.72
56600;BME280;51832;48.152;11.530;2023-04-30T05:39:34;95731.44;;;13.88;68.16
56600;BME280;51832;48.152;11.530;2023-04-30T05:44:34;95732.19;;;14.00;67.41
56600;BME280;51832;48.152;11.530;2023-04-30T05:49:35;95725.97;;;14.06;68.01
56600;BME280;51832;48.152;11.530;2023-04-30T05:54:35;95730.69;;;14.04;67.76
56600;BME280;51832;48.152;11.530;2023-04-30T05:59:36;95725.22;;;14.39;66.58
56600;BME280;51832;48.152;11.530;2023-04-30T06:04:36;95731.75;;;14.03;67.59
56600;BME280;51832;48.152;11.530;2023-04-30T06:09:36;95732.75;;;14.42;65.30
56600;BME280;51832;48.152;11.530;2023-04-30T06:14:37;95725.03;;;13.72;69.08
56600;BME280;51832;48.152;11.530;2023-04-30T06:19:37;95725.69;;;14.36;66.54
56600;BME280;51832;48.152;11.530;2023-04-30T06:24:38;95720.72;;;14.68;65.31
56600;BME280;51832;48.152;11.530;2023-04-30T06:29:38;95715.28;;;14.75;64.93
56600;BME280;51832;48.152;11.530;2023-04-30T06:34:38;95725.44;;;15.16;62.77
56600;BME280;51832;48.152;11.530;2023-04-30T06:39:39;95719.06;;;15.34;62.68
56600;BME280;51832;48.152;11.530;2023-04-30T06:44:39;95718.75;;;15.69;60.82
56600;BME280;51832;48.152;11.530;2023-04-30T06:49:40;95718.34;;;16.26;58.98
56600;BME280;51832;48.152;11.530;2023-04-30T06:54:40;95721.88;;;17.32;54.96
56600;BME280;51832;48.152;11.530;2023-04-30T06:59:42;95716.84;;;17.93;52.76
56600;BME280;51832;48.152;11.530;2023-04-30T07:04:42;95709.78;;;18.29;50.86
56600;BME280;51832;48.152;11.530;2023-04-30T07:09:42;95723.09;;;17.62;54.09
56600;BME280;51832;48.152;11.530;2023-04-30T07:14:43;95717.06;;;17.77;51.28
56600;BME280;51832;48.152;11.530;2023-04-30T07:19:43;95715.50;;;17.38;53.47
56600;BME280;51832;48.152;11.530;2023-04-30T07:24:44;95712.88;;;17.96;53.19
56600;BME280;51832;48.152;11.530;2023-04-30T07:29:45;95710.78;;;18.03;53.11
56600;BME280;51832;48.152;11.530;2023-04-30T07:34:45;95712.41;;;18.19;52.23
56600;BME280;51832;48.152;11.530;2023-04-30T07:39:45;95718.34;;;17.69;53.74
56600;BME280;51832;48.152;11.530;2023-04-30T07:44:46;95711.88;;;18.32;52.76
56600;BME280;51832;48.152;11.530;2023-04-30T07:49:48;95702.91;;;18.79;51.10
56600;BME280;51832;48.152;11.530;2023-04-30T07:54:48;95704.47;;;19.21;49.53
56600;BME280;51832;48.152;11.530;2023-04-30T07:59:49;95699.69;;;19.02;49.31
56600;BME280;51832;48.152;11.530;2023-04-30T08:04:49;95702.06;;;19.49;48.82
56600;BME280;51832;48.152;11.530;2023-04-30T08:09:50;95713.78;;;19.54;48.23
56600;BME280;51832;48.152;11.530;2023-04-30T08:14:58;95717.41;;;19.83;48.25
56600;BME280;51832;48.152;11.530;2023-04-30T08:20:00;95700.94;;;18.03;53.34
56600;BME280;51832;48.152;11.530;2023-04-30T08:25:00;95693.97;;;16.93;57.42
56600;BME280;51832;48.152;11.530;2023-04-30T08:30:01;95699.44;;;17.23;56.43
56600;BME280;51832;48.152;11.530;2023-04-30T08:35:03;95704.16;;;18.21;53.52
56600;BME280;51832;48.152;11.530;2023-04-30T08:40:05;95715.25;;;17.87;54.13
56600;BME280;51832;48.152;11.530;2023-04-30T08:45:10;95705.19;;;18.09;52.65
56600;BME280;51832;48.152;11.530;2023-04-30T08:50:12;95697.78;;;18.47;51.56
56600;BME280;51832;48.152;11.530;2023-04-30T08:55:12;95698.16;;;17.73;54.02
56600;BME280;51832;48.152;11.530;2023-04-30T09:00:13;95701.09;;;17.29;55.31
56600;BME280;51832;48.152;11.530;2023-04-30T09:05:14;95711.78;;;17.87;52.79
56600;BME280;51832;48.152;11.530;2023-04-30T09:10:18;95712.25;;;17.73;52.39
56600;BME280;51832;48.152;11.530;2023-04-30T09:15:19;95705.63;;;17.81;51.73
56600;BME280;51832;48.152;11.530;2023-04-30T09:20:19;95705.97;;;18.00;51.62
56600;BME280;51832;48.152;11.530;2023-04-30T09:25:37;95716.75;;;18.61;50.14
56600;BME280;51832;48.152;11.530;2023-04-30T09:30:39;95701.47;;;17.48;52.09
56600;BME280;51832;48.152;11.530;2023-04-30T09:35:40;95711.28;;;18.00;50.94
56600;BME280;51832;48.152;11.530;2023-04-30T09:40:41;95713.53;;;18.43;50.15
56600;BME280;51832;48.152;11.530;2023-04-30T09:45:43;95711.47;;;17.78;50.47
56600;BME280;51832;48.152;11.530;2023-04-30T09:50:47;95707.56;;;18.06;50.21
56600;BME280;51832;48.152;11.530;2023-04-30T09:55:50;95712.69;;;18.28;50.32
56600;BME280;51832;48.152;11.530;2023-04-30T10:00:52;95705.09;;;17.74;51.20
56600;BME280;51832;48.152;11.530;2023-04-30T10:05:52;95704.09;;;17.90;51.12
56600;BME280;51832;48.152;11.530;2023-04-30T10:10:58;95711.44;;;18.66;48.77
56600;BME280;51832;48.152;11.530;2023-04-30T10:16:06;95702.91;;;18.79;48.95
56600;BME280;51832;48.152;11.530;2023-04-30T10:21:11;95704.25;;;18.76;49.38
56600;BME280;51832;48.152;11.530;2023-04-30T10:26:13;95692.50;;;18.88;48.77
56600;BME280;51832;48.152;11.530;2023-04-30T10:31:16;95686.03;;;18.13;50.28
56600;BME280;51832;48.152;11.530;2023-04-30T10:36:27;95688.72;;;18.33;49.94
56600;BME280;51832;48.152;11.530;2023-04-30T10:41:30;95682.13;;;18.76;48.49
56600;BME280;51832;48.152;11.530;2023-04-30T10:46:33;95677.84;;;18.75;47.43
56600;BME280;51832;48.152;11.530;2023-04-30T10:51:44;95676.06;;;19.70;45.20
56600;BME280;51832;48.152;11.530;2023-04-30T10:56:45;95661.56;;;19.92;43.99
56600;BME280;51832;48.152;11.530;2023-04-30T11:01:57;95663.28;;;19.67;44.45
56600;BME280;51832;48.152;11.530;2023-04-30T11:07:07;95660.13;;;20.53;42.59
56600;BME280;51832;48.152;11.530;2023-04-30T11:12:20;95660.91;;;20.15;43.66
56600;BME280;51832;48.152;11.530;2023-04-30T11:17:27;95657.25;;;20.50;42.04
56600;BME280;51832;48.152;11.530;2023-04-30T11:22:28;95651.25;;;20.63;42.01
56600;BME280;51832;48.152;11.530;2023-04-30T11:27:36;95646.19;;;20.90;40.22
56600;BME280;51832;48.152;11.530;2023-04-30T11:32:38;95646.91;;;21.01;39.45
56600;BME280;51832;48.152;11.530;2023-04-30T11:37:40;95637.56;;;20.36;39.64
56600;BME280;51832;48.152;11.530;2023-04-30T11:42:43;95642.19;;;20.59;39.77
56600;BME280;51832;48.152;11.530;2023-04-30T11:47:48;95644.28;;;19.79;40.52
56600;BME280;51832;48.152;11.530;2023-04-30T11:52:50;95646.69;;;19.80;41.47
56600;BME280;51832;48.152;11.530;2023-04-30T11:57:53;95635.47;;;20.62;40.02
56600;BME280;51832;48.152;11.530;2023-04-30T12:02:55;95640.25;;;20.26;40.67
56600;BME280;51832;48.152;11.530;2023-04-30T12:08:00;95635.13;;;21.02;39.27
56600;BME280;51832;48.152;11.530;2023-04-30T12:13:06;95635.59;;;20.07;41.93
56600;BME280;51832;48.152;11.530;2023-04-30T12:18:11;95639.06;;;19.54;43.18
56600;BME280;51832;48.152;11.530;2023-04-30T12:23:12;95628.09;;;21.06;40.39
56600;BME280;51832;48.152;11.530;2023-04-30T12:28:13;95634.41;;;20.63;41.23
56600;BME280;51832;48.152;11.530;2023-04-30T12:33:16;95632.34;;;20.83;40.54
56600;BME280;51832;48.152;11.530;2023-04-30T12:38:17;95629.75;;;20.44;41.81
56600;BME280;51832;48.152;11.530;2023-04-30T12:43:18;95627.97;;;20.92;40.36
56600;BME280;51832;48.152;11.530;2023-04-30T12:48:20;95619.44;;;20.62;41.39
56600;BME280;51832;48.152;11.530;2023-04-30T12:53:21;95594.72;;;21.51;38.93
56600;BME280;51832;48.152;11.530;2023-04-30T12:58:29;95607.22;;;21.08;40.18
56600;BME280;51832;48.152;11.530;2023-04-30T13:03:30;95598.50;;;21.69;38.66
56600;BME280;51832;48.152;11.530;2023-04-30T13:08:30;95597.19;;;22.74;36.91
56600;BME280;51832;48.152;11.530;2023-04-30T13:13:30;95588.16;;;22.70;36.08
56600;BME280;51832;48.152;11.530;2023-04-30T13:18:32;95574.41;;;22.90;36.02
56600;BME280;51832;48.152;11.530;2023-04-30T13:23:32;95572.97;;;22.65;35.65
56600;BME280;51832;48.152;11.530;2023-04-30T13:28:32;95564.78;;;22.24;36.96
56600;BME280;51832;48.152;11.530;2023-04-30T13:33:33;95555.38;;;21.04;39.24
56600;BME280;51832;48.152;11.530;2023-04-30T13:38:33;95551.72;;;20.95;38.97
56600;BME280;51832;48.152;11.530;2023-04-30T13:43:34;95548.13;;;22.27;36.69
56600;BME280;51832;48.152;11.530;2023-04-30T13:48:34;95546.38;;;23.24;34.31
56600;BME280;51832;48.152;11.530;2023-04-30T13:53:34;95547.41;;;20.99;38.12
56600;BME280;51832;48.152;11.530;2023-04-30T13:58:36;95542.69;;;21.95;36.05
56600;BME280;51832;48.152;11.530;2023-04-30T14:03:37;95526.22;;;21.03;36.88
56600;BME280;51832;48.152;11.530;2023-04-30T14:08:37;95541.53;;;20.97;37.24
56600;BME280;51832;48.152;11.530;2023-04-30T14:13:38;95533.91;;;21.33;35.85
56600;BME280;51832;48.152;11.530;2023-04-30T14:18:38;95520.28;;;21.72;35.37
56600;BME280;51832;48.152;11.530;2023-04-30T14:23:38;95521.66;;;21.70;36.18
56600;BME280;51832;48.152;11.530;2023-04-30T14:28:40;95521.69;;;22.02;35.04
56600;BME280;51832;48.152;11.530;2023-04-30T14:33:40;95511.94;;;22.71;34.19
56600;BME280;51832;48.152;11.530;2023-04-30T14:38:41;95515.72;;;22.70;34.57
56600;BME280;51832;48.152;11.530;2023-04-30T14:43:41;95497.66;;;21.78;36.20
56600;BME280;51832;48.152;11.530;2023-04-30T14:48:42;95509.41;;;22.33;35.49
56600;BME280;51832;48.152;11.530;2023-04-30T14:53:42;95500.00;;;22.96;34.35
56600;BME280;51832;48.152;11.530;2023-04-30T14:58:42;95510.28;;;23.44;33.55
56600;BME280;51832;48.152;11.530;2023-04-30T15:03:43;95517.28;;;23.81;31.66
56600;BME280;51832;48.152;11.530;2023-04-30T15:08:43;95515.59;;;22.94;33.13
56600;BME280;51832;48.152;11.530;2023-04-30T15:13:45;95516.78;;;21.72;35.82
56600;BME280;51832;48.152;11.530;2023-04-30T15:18:46;95515.25;;;23.50;32.99
56600;BME280;51832;48.152;11.530;2023-04-30T15:23:48;95501.78;;;23.78;32.02
56600;BME280;51832;48.152;11.530;2023-04-30T15:28:49;95507.00;;;23.47;32.91
56600;BME280;51832;48.152;11.530;2023-04-30T15:33:49;95511.28;;;23.61;32.59
56600;BME280;51832;48.152;11.530;2023-04-30T15:38:50;95501.50;;;24.46;31.55
56600;BME280;51832;48.152;11.530;2023-04-30T15:43:51;95508.81;;;22.96;33.98
56600;BME280;51832;48.152;11.530;2023-04-30T15:48:51;95502.19;;;22.48;34.70
56600;BME280;51832;48.152;11.530;2023-04-30T15:53:52;95490.59;;;22.52;34.70
56600;BME280;51832;48.152;11.530;2023-04-30T15:58:53;95495.22;;;21.82;35.53
56600;BME280;51832;48.152;11.530;2023-04-30T16:03:53;95484.50;;;21.02;36.67
56600;BME280;51832;48.152;11.530;2023-04-30T16:08:54;95490.13;;;21.00;37.21
56600;BME280;51832;48.152;11.530;2023-04-30T16:13:54;95480.25;;;22.00;34.61
56600;BME280;51832;48.152;11.530;2023-04-30T16:18:55;95480.00;;;23.65;32.08
56600;BME280;51832;48.152;11.530;2023-04-30T16:23:55;95484.22;;;23.44;31.54
56600;BME280;51832;48.152;11.530;2023-04-30T16:28:56;95479.66;;;23.31;31.86
56600;BME280;51832;48.152;11.530;2023-04-30T16:33:56;95475.66;;;22.32;33.89
56600;BME280;51832;48.152;11.530;2023-04-30T16:38:56;95467.28;;;22.20;33.69
56600;BME280;51832;48.152;11.530;2023-04-30T16:43:57;95477.88;;;21.93;33.97
56600;BME280;51832;48.152;11.530;2023-04-30T16:48:58;95476.16;;;21.83;34.36
56600;BME280;51832;48.152;11.530;2023-04-30T16:53:58;95471.59;;;22.03;34.03
56600;BME280;51832;48.152;11.530;2023-04-30T16:58:59;95468.94;;;21.46;35.32
56600;BME280;51832;48.152;11.530;2023-04-30T17:03:59;95472.53;;;20.17;37.74
56600;BME280;51832;48.152;11.530;2023-04-30T17:08:59;95475.88;;;20.86;36.73
56600;BME280;51832;48.152;11.530;2023-04-30T17:14:00;95470.34;;;20.77;36.87
56600;BME280;51832;48.152;11.530;2023-04-30T17:19:00;95475.00;;;20.43;37.42
56600;BME280;51832;48.152;11.530;2023-04-30T17:24:01;95476.91;;;21.09;36.41
56600;BME280;51832;48.152;11.530;2023-04-30T17:29:01;95470.16;;;20.16;37.65
56600;BME280;51832;48.152;11.530;2023-04-30T17:34:01;95478.81;;;20.03;37.31
56600;BME280;51832;48.152;11.530;2023-04-30T17:39:02;95476.16;;;19.98;37.17
56600;BME280;51832;48.152;11.530;2023-04-30T17:44:04;95479.31;;;20.39;36.53
56600;BME280;51832;48.152;11.530;2023-04-30T17:49:05;95474.91;;;19.90;37.52
56600;BME280;51832;48.152;11.530;2023-04-30T17:54:05;95477.06;;;19.49;39.08
56600;BME280;51832;48.152;11.530;2023-04-30T17:59:06;95476.22;;;19.93;38.86
56600;BME280;51832;48.152;11.530;2023-04-30T18:04:07;95474.03;;;20.00;39.19
56600;BME280;51832;48.152;11.530;2023-04-30T18:09:07;95490.75;;;19.32;40.48
56600;BME280;51832;48.152;11.530;2023-04-30T18:14:08;95477.91;;;19.39;40.53
56600;BME280;51832;48.152;11.530;2023-04-30T18:19:08;95480.25;;;19.51;40.46
56600;BME280;51832;48.152;11.530;2023-04-30T18:24:09;95489.41;;;19.30;40.91
56600;BME280;51832;48.152;11.530;2023-04-30T18:29:09;95478.00;;;19.19;41.33
56600;BME280;51832;48.152;11.530;2023-04-30T18:34:10;95481.06;;;18.92;41.78
56600;BME280;51832;48.152;11.530;2023-04-30T18:39:12;95477.00;;;19.05;41.79
56600;BME280;51832;48.152;11.530;2023-04-30T18:44:12;95473.22;;;19.16;41.07
56600;BME280;51832;48.152;11.530;2023-04-30T18:49:13;95485.28;;;19.03;41.73
56600;BME280;51832;48.152;11.530;2023-04-30T18:54:13;95488.84;;;18.84;41.95
56600;BME280;51832;48.152;11.530;2023-04-30T18:59:13;95483.00;;;18.76;42.06
56600;BME280;51832;48.152;11.530;2023-04-30T19:04:14;95484.53;;;18.88;41.67
56600;BME280;51832;48.152;11.530;2023-04-30T19:09:16;95485.66;;;18.76;41.82
56600;BME280;51832;48.152;11.530;2023-04-30T19:14:16;95490.22;;;18.51;42.28
56600;BME280;51832;48.152;11.530;2023-04-30T19:19:17;95496.03;;;18.83;41.10
56600;BME280;51832;48.152;11.530;2023-04-30T19:24:17;95503.81;;;18.69;41.82
56600;BME280;51832;48.152;11.530;2023-04-30T19:29:17;95491.84;;;18.52;41.86
56600;BME280;51832;48.152;11.530;2023-04-30T19:34:18;95499.56;;;18.48;41.73
56600;BME280;51832;48.152;11.530;2023-04-30T19:39:18;95490.28;;;18.10;42.66
56600;BME280;51832;48.152;11.530;2023-04-30T19:44:19;95498.53;;;18.08;42.57
56600;BME280;51832;48.152;11.530;2023-04-30T19:49:20;95501.22;;;18.08;42.12
56600;BME280;51832;48.152;11.530;2023-04-30T19:54:22;95503.34;;;18.06;42.68
56600;BME280;51832;48.152;11.530;2023-04-30T19:59:22;95496.16;;;18.12;42.10
56600;BME280;51832;48.152;11.530;2023-04-30T20:04:23;95500.13;;;18.04;42.08
56600;BME280;51832;48.152;11.530;2023-04-30T20:09:25;95493.75;;;17.80;42.78
56600;BME280;51832;48.152;11.530;2023-04-30T20:14:26;95492.41;;;17.93;42.34
56600;BME280;51832;48.152;11.530;2023-04-30T20:19:26;95487.91;;;17.98;42.49
56600;BME280;51832;48.152;11.530;2023-04-30T20:24:27;95474.84;;;17.92;42.46
56600;BME280;51832;48.152;11.530;2023-04-30T20:29:27;95484.44;;;17.77;42.73
56600;BME280;51832;48.152;11.530;2023-04-30T20:34:28;95486.50;;;17.50;43.49
56600;BME280;51832;48.152;11.530;2023-04-30T20:39:29;95475.13;;;17.65;42.93
56600;BME280;51832;48.152;11.530;2023-04-30T20:44:29;95471.31;;;17.25;44.18
56600;BME280;51832;48.152;11.530;2023-04-30T20:49:30;95464.38;;;17.19;43.66
56600;BME280;51832;48.152;11.530;2023-04-30T20:54:30;95475.84;;;17.40;43.44
56600;BME280;51832;48.152;11.530;2023-04-30T20:59:31;95467.59;;;17.36;43.35
56600;BME280;51832;48.152;11.530;2023-04-30T21:04:31;95469.66;;;17.04;44.09
56600;BME280;51832;48.152;11.530;2023-04-30T21:09:32;95461.97;;;17.23;43.94
56600;BME280;51832;48.152;11.530;2023-04-30T21:14:33;95453.22;;;17.17;43.96
56600;BME280;51832;48.152;11.530;2023-04-30T21:19:34;95460.56;;;16.90;44.32
56600;BME280;51832;48.152;11.530;2023-04-30T21:24:36;95448.06;;;16.85;44.57
56600;BME280;51832;48.152;11.530;2023-04-30T21:29:41;95441.72;;;16.91;44.57
56600;BME280;51832;48.152;11.530;2023-04-30T21:34:42;95446.41;;;16.64;45.04
56600;BME280;51832;48.152;11.530;2023-04-30T21:39:43;95444.78;;;16.63;44.50
56600;BME280;51832;48.152;11.530;2023-04-30T21:44:44;95441.38;;;16.73;44.58
56600;BME280;51832;48.152;11.530;2023-04-30T21:49:44;95438.84;;;16.46;45.35
56600;BME280;51832;48.152;11.530;2023-04-30T21:54:47;95431.41;;;16.48;45.37
56600;BME280;51832;48.152;11.530;2023-04-30T21:59:48;95432.06;;;16.65;44.87
56600;BME280;51832;48.152;11.530;2023-04-30T22:04:48;95437.00;;;16.51;45.02
56600;BME280;51832;48.152;11.530;2023-04-30T22:09:49;95422.16;;;16.60;44.69
56600;BME280;51832;48.152;11.530;2023-04-30T22:14:54;95423.44;;;16.48;44.87
56600;BME280;51832;48.152;11.530;2023-04-30T22:19:54;95416.81;;;16.50;44.82
56600;BME280;51832;48.152;11.530;2023-04-30T22:24:56;95417.22;;;16.27;45.67
56600;BME280;51832;48.152;11.530;2023-04-30T22:29:56;95412.16;;;16.20;45.77
56600;BME280;51832;48.152;11.530;2023-04-30T22:34:57;95411.94;;;16.32;45.54
56600;BME280;51832;48.152;11.530;2023-04-30T22:39:57;95407.75;;;16.46;45.14
56600;BME280;51832;48.152;11.530;2023-04-30T22:44:58;95405.41;;;16.50;44.61
56600;BME280;51832;48.152;11.530;2023-04-30T22:49:59;95399.28;;;16.49;44.78
56600;BME280;51832;48.152;11.530;2023-04-30T22:55:00;95386.41;;;16.21;45.28
56600;BME280;51832;48.152;11.530;2023-04-30T23:00:02;95386.69;;;16.24;45.96
56600;BME280;51832;48.152;11.530;2023-04-30T23:05:03;95382.47;;;16.33;45.41
56600;BME280;51832;48.152;11.530;2023-04-30T23:10:04;95378.84;;;15.97;46.11
56600;BME280;51832;48.152;11.530;2023-04-30T23:15:05;95374.47;;;15.76;46.35
56600;BME280;51832;48.152;11.530;2023-04-30T23:20:06;95370.31;;;15.90;46.31
56600;BME280;51832;48.152;11.530;2023-04-30T23:25:07;95366.91;;;15.95;46.14
56600;BME280;51832;48.152;11.530;2023-04-30T23:30:08;95371.41;;;15.94;46.16
56600;BME280;51832;48.152;11.530;2023-04-30T23:35:08;95351.75;;;15.90;46.02
56600;BME280;51832;48.152;11.530;2023-04-30T23:40:09;95357.03;;;15.90;45.90
56600;BME280;51832;48.152;11.530;2023-04-30T23:45:10;95352.31;;;15.55;47.09
56600;BME280;51832;48.152;11.530;2023-04-30T23:50:10;95354.59;;;15.47;47.36
56600;BME280;51832;48.152;11.530;2023-04-30T23:55:11;95355.94;;;15.44;47.70
